Time;durP1;ratioP1;P1;durP2;ratioP2;P2;SDS_P1;SDS_P2;PMS_P1;PMS_P2;Temp;Humidity;BMP_temperature;BMP_pressure;BME280_temperature;BME280_humidity;BME280_pressure;Samples;Min_cycle;Max_cycle;Signal;HPM_P1;HPM_P2
2023/10/24 00:00:34;;;;;;;29.30;6.38;;;;;;;;;;4888929;28;20142;-68
2023/10/24 00:03:01;;;;;;;43.10;6.15;;;;;;;;;;4905853;28;20390;-67
2023/10/24 00:05:28;;;;;;;38.55;6.70;;;;;;;;;;4902018;28;20529;-67
2023/10/24 00:07:54;;;;;;;42.67;6.53;;;;;;;;;;4906551;28;20042;-67
2023/10/24 00:10:21;;;;;;;40.42;6.80;;;;;;;;;;4890682;28;20031;-67
2023/10/24 00:12:47;;;;;;;34.60;6.15;;;;;;;;;;4905054;28;20489;-67
2023/10/24 00:15:13;;;;;;;36.50;6.53;;;;;;;;;;4926169;28;20105;-67
2023/10/24 00:17:39;;;;;;;43.83;7.85;;;;;;;;;;4940802;28;20037;-68
2023/10/24 00:20:06;;;;;;;38.72;6.50;;;;;;;;;;4939655;28;20361;-67
2023/10/24 00:22:32;;;;;;;44.50;7.55;;;;;;;;;;4942168;28;20116;-67
2023/10/24 00:24:58;;;;;;;44.95;8.82;;;;;;;;;;4945678;28;20042;-67
2023/10/24 00:27:24;;;;;;;43.05;7.47;;;;;;;;;;4944461;28;20042;-67
2023/10/24 00:29:50;;;;;;;45.20;7.10;;;;;;;;;;4946341;28;20463;-68
2023/10/24 00:32:16;;;;;;;49.17;8.40;;;;;;;;;;4941585;28;20063;-67
2023/10/24 00:34:42;;;;;;;45.65;7.40;;;;;;;;;;4928856;28;20026;-67
2023/10/24 00:37:09;;;;;;;38.10;6.88;;;;;;;;;;4929855;28;20042;-67
2023/10/24 00:39:35;;;;;;;36.33;7.13;;;;;;;;;;4944710;28;20653;-67
2023/10/24 00:42:02;;;;;;;45.75;8.20;;;;;;;;;;4932593;28;20141;-67
2023/10/24 00:44:29;;;;;;;41.13;7.25;;;;;;;;;;4926798;28;20129;-67
2023/10/24 00:46:55;;;;;;;41.15;7.18;;;;;;;;;;4931619;28;20490;-67
2023/10/24 00:49:21;;;;;;;43.47;7.05;;;;;;;;;;4949677;28;20132;-67
2023/10/24 00:51:47;;;;;;;36.05;6.53;;;;;;;;;;4942725;28;20081;-67
2023/10/24 00:54:14;;;;;;;39.70;6.63;;;;;;;;;;4949117;28;20085;-67
2023/10/24 00:56:42;;;;;;;44.50;7.43;;;;;;;;;;4941752;28;20082;-67
2023/10/24 00:59:08;;;;;;;41.97;6.22;;;;;;;;;;4930844;28;20414;-67
2023/10/24 01:01:35;;;;;;;34.80;6.90;;;;;;;;;;4945441;28;20450;-67
2023/10/24 01:04:01;;;;;;;39.80;6.60;;;;;;;;;;4941632;28;20481;-67
2023/10/24 01:06:27;;;;;;;35.97;6.13;;;;;;;;;;4927015;28;20673;-66
2023/10/24 01:08:53;;;;;;;39.33;6.65;;;;;;;;;;4943654;28;20029;-67
2023/10/24 01:11:20;;;;;;;35.83;6.65;;;;;;;;;;4948364;28;20231;-67
2023/10/24 01:13:47;;;;;;;33.55;6.25;;;;;;;;;;4940937;28;20041;-67
2023/10/24 01:16:16;;;;;;;29.42;6.03;;;;;;;;;;4947988;28;20422;-67
2023/10/24 01:18:43;;;;;;;27.95;5.32;;;;;;;;;;4941450;28;20603;-67
2023/10/24 01:21:09;;;;;;;32.28;5.47;;;;;;;;;;4928608;28;20094;-67
2023/10/24 01:23:36;;;;;;;21.42;3.83;;;;;;;;;;4940657;28;20031;-67
2023/10/24 01:26:02;;;;;;;27.00;4.35;;;;;;;;;;4927353;28;20496;-67
2023/10/24 01:28:29;;;;;;;18.58;3.67;;;;;;;;;;4943512;28;20031;-67
2023/10/24 01:30:56;;;;;;;25.95;4.63;;;;;;;;;;4927878;28;20043;-67
2023/10/24 01:33:22;;;;;;;28.67;4.60;;;;;;;;;;4944328;28;20158;-67
2023/10/24 01:35:49;;;;;;;22.75;4.57;;;;;;;;;;4928995;28;20031;-67
2023/10/24 01:38:15;;;;;;;22.20;4.32;;;;;;;;;;4943305;28;20310;-67
2023/10/24 01:40:41;;;;;;;23.90;4.75;;;;;;;;;;4940558;28;20118;-66
2023/10/24 01:43:07;;;;;;;;;;;;;;;;;;4931133;28;20512;-67
2023/10/24 01:45:33;;;;;;;20.40;4.30;;;;;;;;;;4940705;28;19914;-66
2023/10/24 01:47:59;;;;;;;22.40;4.45;;;;;;;;;;4933069;28;20049;-66
2023/10/24 01:50:25;;;;;;;22.92;4.30;;;;;;;;;;4925591;28;20146;-66
2023/10/24 01:52:51;;;;;;;24.05;5.18;;;;;;;;;;4947911;28;20035;-67
2023/10/24 01:55:17;;;;;;;18.27;4.40;;;;;;;;;;4944054;28;20398;-67
2023/10/24 01:57:44;;;;;;;24.88;4.53;;;;;;;;;;4929341;28;20620;-66
2023/10/24 02:00:10;;;;;;;17.13;3.50;;;;;;;;;;4947148;28;20097;-67
2023/10/24 02:02:36;;;;;;;19.75;3.88;;;;;;;;;;4940842;28;20247;-67
2023/10/24 02:05:02;;;;;;;20.50;4.07;;;;;;;;;;4944514;28;20328;-66
2023/10/24 02:07:28;;;;;;;20.95;4.53;;;;;;;;;;4935379;28;20042;-67
2023/10/24 02:09:55;;;;;;;19.13;3.92;;;;;;;;;;4946609;28;20047;-67
2023/10/24 02:12:24;;;;;;;22.95;4.03;;;;;;;;;;4946324;28;20038;-67
2023/10/24 02:14:50;;;;;;;21.80;3.70;;;;;;;;;;4943973;28;20102;-66
2023/10/24 02:17:16;;;;;;;25.00;4.45;;;;;;;;;;4944598;28;20035;-66
2023/10/24 02:19:42;;;;;;;18.27;3.47;;;;;;;;;;4941139;28;20038;-66
2023/10/24 02:22:08;;;;;;;18.15;3.17;;;;;;;;;;4941472;28;20524;-66
2023/10/24 02:24:35;;;;;;;19.77;4.15;;;;;;;;;;4943587;28;20024;-68
2023/10/24 02:27:01;;;;;;;21.17;3.70;;;;;;;;;;4928158;28;20038;-66
2023/10/24 02:29:27;;;;;;;19.48;3.42;;;;;;;;;;4941168;28;20033;-66
2023/10/24 02:31:54;;;;;;;19.58;3.25;;;;;;;;;;4942957;28;20035;-67
2023/10/24 02:34:21;;;;;;;16.45;2.85;;;;;;;;;;4948475;28;20616;-67
2023/10/24 02:36:47;;;;;;;13.80;2.65;;;;;;;;;;4926783;28;20630;-67
2023/10/24 02:39:13;;;;;;;19.92;3.13;;;;;;;;;;4944096;28;20046;-67
2023/10/24 02:41:39;;;;;;;19.02;3.08;;;;;;;;;;4943806;28;20127;-67
2023/10/24 02:44:05;;;;;;;19.23;2.92;;;;;;;;;;4940202;28;20031;-67
2023/10/24 02:46:31;;;;;;;18.17;3.17;;;;;;;;;;4940722;28;20045;-67
2023/10/24 02:48:57;;;;;;;16.75;3.30;;;;;;;;;;4945224;28;20511;-67
2023/10/24 02:51:23;;;;;;;15.23;3.08;;;;;;;;;;4940117;28;20138;-67
2023/10/24 02:53:50;;;;;;;17.60;2.60;;;;;;;;;;4928369;28;20023;-67
2023/10/24 02:56:16;;;;;;;17.75;3.10;;;;;;;;;;4929958;28;20156;-67
2023/10/24 02:58:43;;;;;;;17.63;3.03;;;;;;;;;;4925097;28;20123;-67
2023/10/24 03:01:09;;;;;;;17.77;3.10;;;;;;;;;;4929163;28;20036;-66
2023/10/24 03:03:35;;;;;;;16.23;3.13;;;;;;;;;;4940982;28;20027;-67
2023/10/24 03:06:01;;;;;;;17.33;2.92;;;;;;;;;;4945724;28;20178;-66
2023/10/24 03:08:28;;;;;;;12.55;2.72;;;;;;;;;;4928788;28;20026;-66
2023/10/24 03:10:54;;;;;;;18.83;3.10;;;;;;;;;;4945727;28;20061;-66
2023/10/24 03:13:20;;;;;;;17.27;3.33;;;;;;;;;;4928439;28;20386;-66
2023/10/24 03:15:46;;;;;;;18.50;3.28;;;;;;;;;;4939412;28;20050;-66
2023/10/24 03:18:12;;;;;;;17.20;3.70;;;;;;;;;;4924741;28;20039;-66
2023/10/24 03:20:41;;;;;;;19.17;3.22;;;;;;;;;;4937995;28;20034;-67
2023/10/24 03:23:09;;;;;;;19.38;3.47;;;;;;;;;;4942436;28;20066;-66
2023/10/24 03:25:35;;;;;;;18.15;3.60;;;;;;;;;;4940315;28;20042;-67
2023/10/24 03:28:01;;;;;;;23.63;4.15;;;;;;;;;;4946482;28;20035;-67
2023/10/24 03:30:27;;;;;;;20.17;3.25;;;;;;;;;;4943588;28;20119;-67
2023/10/24 03:32:53;;;;;;;;;;;;;;;;;;4943092;28;20031;-66
2023/10/24 03:35:19;;;;;;;7.30;1.50;;;;;;;;;;4930668;28;20396;-67
2023/10/24 03:37:45;;;;;;;9.40;1.85;;;;;;;;;;4943889;28;20806;-67
2023/10/24 03:40:11;;;;;;;;;;;;;;;;;;4943155;28;20045;-67
2023/10/24 03:42:37;;;;;;;8.02;1.38;;;;;;;;;;4937755;28;20471;-67
2023/10/24 03:45:04;;;;;;;8.55;1.70;;;;;;;;;;4928285;28;20034;-66
2023/10/24 03:47:30;;;;;;;6.07;1.15;;;;;;;;;;4935369;28;20093;-66
2023/10/24 03:49:56;;;;;;;;;;;;;;;;;;4944322;28;20027;-66
2023/10/24 03:52:22;;;;;;;7.80;1.65;;;;;;;;;;4946855;28;20121;-66
2023/10/24 03:54:48;;;;;;;5.97;1.20;;;;;;;;;;4943671;28;20215;-68
2023/10/24 03:57:14;;;;;;;;;;;;;;;;;;4945245;28;20115;-66
2023/10/24 03:59:40;;;;;;;7.57;1.23;;;;;;;;;;4941105;28;19926;-66
2023/10/24 04:02:06;;;;;;;9.18;2.50;;;;;;;;;;4944218;28;20085;-67
2023/10/24 04:04:32;;;;;;;;;;;;;;;;;;4944336;28;20047;-67
2023/10/24 04:06:59;;;;;;;9.05;2.67;;;;;;;;;;4946323;28;20419;-67
2023/10/24 04:09:25;;;;;;;10.63;2.30;;;;;;;;;;4943507;28;20303;-66
2023/10/24 04:11:51;;;;;;;;;;;;;;;;;;4930970;28;20027;-67
2023/10/24 04:14:17;;;;;;;8.25;1.48;;;;;;;;;;4931013;28;19922;-67
2023/10/24 04:16:43;;;;;;;;;;;;;;;;;;4942477;28;20436;-67
2023/10/24 04:19:10;;;;;;;9.10;1.70;;;;;;;;;;4948259;28;19914;-67
2023/10/24 04:21:36;;;;;;;8.38;1.83;;;;;;;;;;4941152;28;20026;-67
2023/10/24 04:24:03;;;;;;;6.53;1.35;;;;;;;;;;4947541;28;20486;-67
2023/10/24 04:26:29;;;;;;;8.52;1.50;;;;;;;;;;4942524;28;20027;-67
2023/10/24 04:28:55;;;;;;;;;;;;;;;;;;4945370;28;20027;-67
2023/10/24 04:31:21;;;;;;;7.18;1.33;;;;;;;;;;4923206;28;20477;-67
2023/10/24 04:33:48;;;;;;;8.27;1.48;;;;;;;;;;4942407;28;20133;-67
2023/10/24 04:36:14;;;;;;;8.25;1.50;;;;;;;;;;4945028;28;20033;-67
2023/10/24 04:38:40;;;;;;;7.15;1.40;;;;;;;;;;4942508;28;20037;-67
2023/10/24 04:41:06;;;;;;;;;;;;;;;;;;4948085;28;20397;-67
2023/10/24 04:43:32;;;;;;;8.90;1.55;;;;;;;;;;4944949;28;19921;-67
2023/10/24 04:45:59;;;;;;;7.82;1.55;;;;;;;;;;4929534;28;20022;-66
2023/10/24 04:48:25;;;;;;;10.95;1.80;;;;;;;;;;4943929;28;20553;-68
2023/10/24 04:50:52;;;;;;;9.73;1.80;;;;;;;;;;4945648;28;20129;-67
2023/10/24 04:53:18;;;;;;;;;;;;;;;;;;4949373;28;20035;-67
2023/10/24 04:55:44;;;;;;;11.07;2.00;;;;;;;;;;4942304;28;20471;-67
2023/10/24 04:58:10;;;;;;;8.95;1.67;;;;;;;;;;4931486;28;20555;-67
2023/10/24 05:00:36;;;;;;;10.13;2.05;;;;;;;;;;4944575;28;20472;-67
2023/10/24 05:03:02;;;;;;;10.65;1.80;;;;;;;;;;4950167;28;20460;-67
2023/10/24 05:05:29;;;;;;;8.10;1.80;;;;;;;;;;4942390;28;20209;-67
2023/10/24 05:07:55;;;;;;;7.45;1.40;;;;;;;;;;4932915;28;20077;-67
2023/10/24 05:10:21;;;;;;;;;;;;;;;;;;4946432;28;20027;-67
2023/10/24 05:12:47;;;;;;;9.68;1.95;;;;;;;;;;4942153;28;19917;-67
2023/10/24 05:15:13;;;;;;;9.55;1.90;;;;;;;;;;4929174;28;20592;-67
2023/10/24 05:17:39;;;;;;;;;;;;;;;;;;4942737;28;20023;-67
2023/10/24 05:20:07;;;;;;;9.43;2.28;;;;;;;;;;4928294;28;20065;-66
2023/10/24 05:22:34;;;;;;;8.45;2.10;;;;;;;;;;4944887;28;20257;-67
2023/10/24 05:25:00;;;;;;;8.07;1.80;;;;;;;;;;4942270;28;20042;-66
2023/10/24 05:27:26;;;;;;;10.70;1.92;;;;;;;;;;4941471;28;20759;-66
2023/10/24 05:29:52;;;;;;;8.90;1.92;;;;;;;;;;4931562;28;20504;-66
2023/10/24 05:32:19;;;;;;;11.07;1.95;;;;;;;;;;4945831;28;20035;-67
2023/10/24 05:34:45;;;;;;;9.38;1.70;;;;;;;;;;4944620;28;20340;-67
2023/10/24 05:37:11;;;;;;;8.98;1.65;;;;;;;;;;4947625;28;20070;-67
2023/10/24 05:39:37;;;;;;;8.05;1.80;;;;;;;;;;4943435;28;20042;-68
2023/10/24 05:42:03;;;;;;;;;;;;;;;;;;4932018;28;20485;-68
2023/10/24 05:44:29;;;;;;;8.63;1.95;;;;;;;;;;4945184;28;19924;-68
2023/10/24 05:46:55;;;;;;;;;;;;;;;;;;4943008;28;20031;-67
2023/10/24 05:49:21;;;;;;;;;;;;;;;;;;4948526;28;20371;-72
2023/10/24 05:51:47;;;;;;;;;;;;;;;;;;4942172;28;19920;-67
2023/10/24 05:54:13;;;;;;;;;;;;;;;;;;4944191;28;20276;-68
2023/10/24 05:56:39;;;;;;;;;;;;;;;;;;4943856;28;19984;-68
2023/10/24 05:59:05;;;;;;;;;;;;;;;;;;4944230;28;19922;-68
2023/10/24 06:01:31;;;;;;;;;;;;;;;;;;4941913;28;19918;-67
2023/10/24 06:03:57;;;;;;;;;;;;;;;;;;4946887;28;20400;-67
2023/10/24 06:06:23;;;;;;;;;;;;;;;;;;4942832;28;20020;-67
2023/10/24 06:08:49;;;;;;;;;;;;;;;;;;4945674;28;20307;-67
2023/10/24 06:11:16;;;;;;;;;;;;;;;;;;4941801;28;19914;-67
2023/10/24 06:13:41;;;;;;;;;;;;;;;;;;4938873;28;19914;-67
2023/10/24 06:16:08;;;;;;;;;;;;;;;;;;4941518;28;20402;-66
2023/10/24 06:18:33;;;;;;;;;;;;;;;;;;4943341;28;19921;-66
2023/10/24 06:20:59;;;;;;;;;;;;;;;;;;4946710;28;19973;-66
2023/10/24 06:23:25;;;;;;;;;;;;;;;;;;4941461;28;19944;-66
2023/10/24 06:25:51;;;;;;;;;;;;;;;;;;4947201;28;19920;-66
2023/10/24 06:28:17;;;;;;;;;;;;;;;;;;4929764;28;19917;-67
2023/10/24 06:30:45;;;;;;;;;;;;;;;;;;4941403;28;20277;-68
2023/10/24 06:33:11;;;;;;;;;;;;;;;;;;4931924;28;20569;-68
2023/10/24 06:35:37;;;;;;;;;;;;;;;;;;4922026;28;19914;-67
2023/10/24 06:38:03;;;;;;;;;;;;;;;;;;4943967;28;21319;-66
2023/10/24 06:40:29;;;;;;;;;;;;;;;;;;4939355;28;20556;-67
2023/10/24 06:42:55;;;;;;;;;;;;;;;;;;4939718;28;19914;-66
2023/10/24 06:45:21;;;;;;;;;;;;;;;;;;4941869;28;19920;-66
2023/10/24 06:47:47;;;;;;;;;;;;;;;;;;4939384;28;19918;-66
2023/10/24 06:50:13;;;;;;;;;;;;;;;;;;4939910;28;20016;-66
2023/10/24 06:52:41;;;;;;;;;;;;;;;;;;4945521;28;19914;-66
2023/10/24 06:55:07;;;;;;;;;;;;;;;;;;4946120;28;19914;-66
2023/10/24 06:57:33;;;;;;;;;;;;;;;;;;4940993;28;19993;-66
2023/10/24 06:59:59;;;;;;;;;;;;;;;;;;4929118;28;20627;-67
2023/10/24 07:02:25;;;;;;;;;;;;;;;;;;4927243;28;19918;-67
2023/10/24 07:04:51;;;;;;;;;;;;;;;;;;4947141;28;19925;-67
2023/10/24 07:07:19;;;;;;;;;;;;;;;;;;4941691;28;19980;-66
2023/10/24 07:09:44;;;;;;;;;;;;;;;;;;4926834;28;20377;-66
2023/10/24 07:12:11;;;;;;;;;;;;;;;;;;4929256;28;20373;-69
2023/10/24 07:14:37;;;;;;;;;;;;;;;;;;4938407;28;19929;-66
2023/10/24 07:17:03;;;;;;;;;;;;;;;;;;4945313;28;19910;-66
2023/10/24 07:19:29;;;;;;;;;;;;;;;;;;4940896;28;20482;-67
2023/10/24 07:21:55;;;;;;;;;;;;;;;;;;4945936;28;20664;-67
2023/10/24 07:24:21;;;;;;;;;;;;;;;;;;4929749;28;19985;-67
2023/10/24 07:26:47;;;;;;;;;;;;;;;;;;4921893;28;20183;-67
2023/10/24 07:29:13;;;;;;;;;;;;;;;;;;4944721;28;20025;-67
2023/10/24 07:31:39;;;;;;;;;;;;;;;;;;4940683;28;20587;-67
2023/10/24 07:34:04;;;;;;;;;;;;;;;;;;4941838;28;19914;-67
2023/10/24 07:36:31;;;;;;;;;;;;;;;;;;4925407;28;19956;-68
2023/10/24 07:38:57;;;;;;;;;;;;;;;;;;4932465;28;19922;-67
2023/10/24 07:41:22;;;;;;;;;;;;;;;;;;4932054;28;19929;-67
2023/10/24 07:43:48;;;;;;;;;;;;;;;;;;4949906;28;20210;-67
2023/10/24 07:46:14;;;;;;;;;;;;;;;;;;4946798;28;20418;-66
2023/10/24 07:48:40;;;;;;;;;;;;;;;;;;4945286;28;19918;-67
2023/10/24 07:51:10;;;;;;;;;;;;;;;;;;4949350;28;19937;-67
2023/10/24 07:53:36;;;;;;;;;;;;;;;;;;4927031;28;19914;-67
2023/10/24 07:56:02;;;;;;;;;;;;;;;;;;4945016;28;20333;-67
2023/10/24 07:58:29;;;;;;;;;;;;;;;;;;4944385;28;20004;-66
2023/10/24 08:00:55;;;;;;;;;;;;;;;;;;4950685;28;19929;-67
2023/10/24 08:03:21;;;;;;;;;;;;;;;;;;4947483;28;19918;-67
2023/10/24 08:05:47;;;;;;;;;;;;;;;;;;4924795;28;20375;-67
2023/10/24 08:08:13;;;;;;;;;;;;;;;;;;4928971;28;20483;-69
2023/10/24 08:10:39;;;;;;;;;;;;;;;;;;4945925;28;20015;-67
2023/10/24 08:13:05;;;;;;;;;;;;;;;;;;4927694;28;19976;-66
2023/10/24 08:15:31;;;;;;;;;;;;;;;;;;4945466;28;20008;-67
2023/10/24 08:17:57;;;;;;;;;;;;;;;;;;4950013;28;19914;-68
2023/10/24 08:20:23;;;;;;;;;;;;;;;;;;4944147;28;20413;-67
2023/10/24 08:22:51;;;;;;;;;;;;;;;;;;4944779;28;19920;-67
2023/10/24 08:25:17;;;;;;;;;;;;;;;;;;4948350;28;19914;-67
2023/10/24 08:27:43;;;;;;;;;;;;;;;;;;4923466;28;19918;-67
2023/10/24 08:30:09;;;;;;;;;;;;;;;;;;4940024;28;19918;-67
2023/10/24 08:32:35;;;;;;;;;;;;;;;;;;4942729;28;19925;-67
2023/10/24 08:35:01;;;;;;;;;;;;;;;;;;4946609;28;19946;-67
2023/10/24 08:37:26;;;;;;;;;;;;;;;;;;4948040;28;19918;-67
2023/10/24 08:39:52;;;;;;;;;;;;;;;;;;4950782;28;19950;-68
2023/10/24 08:42:18;;;;;;;;;;;;;;;;;;4947206;28;20383;-67
2023/10/24 08:44:44;;;;;;;;;;;;;;;;;;4944928;28;19913;-67
2023/10/24 08:47:10;;;;;;;;;;;;;;;;;;4948173;28;19925;-67
2023/10/24 08:49:36;;;;;;;;;;;;;;;;;;4947133;28;20351;-66
2023/10/24 08:52:02;;;;;;;;;;;;;;;;;;4953652;28;19958;-67
2023/10/24 08:54:28;;;;;;;;;;;;;;;;;;4947195;28;20447;-67
2023/10/24 08:56:54;;;;;;;;;;;;;;;;;;4948366;28;20036;-67
2023/10/24 08:59:20;;;;;;;;;;;;;;;;;;4953614;28;19951;-67
2023/10/24 09:01:46;;;;;;;;;;;;;;;;;;4931078;28;19921;-67
2023/10/24 09:04:13;;;;;;;;;;;;;;;;;;4936274;28;19921;-68
2023/10/24 09:06:39;;;;;;;;;;;;;;;;;;4932884;28;20360;-67
2023/10/24 09:09:04;;;;;;;;;;;;;;;;;;4936995;28;19977;-67
2023/10/24 09:11:30;;;;;;;;;;;;;;;;;;4931346;28;20338;-67
2023/10/24 09:13:56;;;;;;;;;;;;;;;;;;4952353;28;20317;-67
2023/10/24 09:16:22;;;;;;;;;;;;;;;;;;4951192;28;19917;-67
2023/10/24 09:18:48;;;;;;;;;;;;;;;;;;4947707;28;19914;-68
2023/10/24 09:21:14;;;;;;;;;;;;;;;;;;4932800;28;19920;-68
2023/10/24 09:23:40;;;;;;;;;;;;;;;;;;4946317;28;20529;-67
2023/10/24 09:26:06;;;;;;;;;;;;;;;;;;4949784;28;19918;-67
2023/10/24 09:28:35;;;;;;;;;;;;;;;;;;4946630;28;20339;-67
2023/10/24 09:31:01;;;;;;;;;;;;;;;;;;4949416;28;20432;-68
2023/10/24 09:33:27;;;;;;;;;;;;;;;;;;4945989;28;19925;-67
2023/10/24 09:35:53;;;;;;;;;;;;;;;;;;4933004;28;19914;-67
2023/10/24 09:38:19;;;;;;;;;;;;;;;;;;4946600;28;19941;-67
2023/10/24 09:40:45;;;;;;;;;;;;;;;;;;4931322;28;20438;-68
2023/10/24 09:43:11;;;;;;;;;;;;;;;;;;4930819;28;19914;-68
2023/10/24 09:45:37;;;;;;;;;;;;;;;;;;4942834;28;19925;-67
2023/10/24 09:48:03;;;;;;;;;;;;;;;;;;4948571;28;19918;-68
2023/10/24 09:50:29;;;;;;;;;;;;;;;;;;4946372;28;20396;-68
2023/10/24 09:52:55;;;;;;;;;;;;;;;;;;4945344;28;19914;-68
2023/10/24 09:55:21;;;;;;;;;;;;;;;;;;4950009;28;20590;-68
2023/10/24 09:57:47;;;;;;;;;;;;;;;;;;4945511;28;20383;-68
2023/10/24 10:00:13;;;;;;;;;;;;;;;;;;4944761;28;20004;-69
2023/10/24 10:02:42;;;;;;;;;;;;;;;;;;4946133;28;20651;-69
2023/10/24 10:05:07;;;;;;;;;;;;;;;;;;4948551;28;19914;-68
2023/10/24 10:07:33;;;;;;;;;;;;;;;;;;4947704;28;19917;-68
2023/10/24 10:09:59;;;;;;;;;;;;;;;;;;4951711;28;19924;-68
2023/10/24 10:12:25;;;;;;;;;;;;;;;;;;4929931;28;19925;-68
2023/10/24 10:14:51;;;;;;;;;;;;;;;;;;4945649;28;19914;-68
2023/10/24 10:17:17;;;;;;;;;;;;;;;;;;4946334;28;20645;-68
2023/10/24 10:19:43;;;;;;;;;;;;;;;;;;4946240;28;19917;-68
2023/10/24 10:22:09;;;;;;;;;;;;;;;;;;4934765;28;19914;-68
2023/10/24 10:24:35;;;;;;;;;;;;;;;;;;4951064;28;20544;-68
2023/10/24 10:27:01;;;;;;;;;;;;;;;;;;4954369;28;19918;-69
2023/10/24 10:29:27;;;;;;;;;;;;;;;;;;4943286;28;19925;-67
2023/10/24 10:31:54;;;;;;;;;;;;;;;;;;4932606;28;19921;-68
2023/10/24 10:34:20;;;;;;;;;;;;;;;;;;4947860;28;20281;-68
2023/10/24 10:36:46;;;;;;;;;;;;;;;;;;4946040;28;19918;-68
2023/10/24 10:39:12;;;;;;;;;;;;;;;;;;4946653;28;20269;-68
2023/10/24 10:41:39;;;;;;;;;;;;;;;;;;4943903;28;20118;-68
2023/10/24 10:44:05;;;;;;;;;;;;;;;;;;4927466;28;20581;-68
2023/10/24 10:46:31;;;;;;;;;;;;;;;;;;4944850;28;19984;-68
2023/10/24 10:48:57;;;;;;;;;;;;;;;;;;4927946;28;20280;-69
2023/10/24 10:51:24;;;;;;;;;;;;;;;;;;4949700;28;20265;-67
2023/10/24 10:53:50;;;;;;;;;;;;;;;;;;4935363;28;19914;-68
2023/10/24 10:56:16;;;;;;;;;;;;;;;;;;4949682;28;20285;-68
2023/10/24 10:58:42;;;;;;;;;;;;;;;;;;4926818;28;20608;-68
2023/10/24 11:01:08;;;;;;;;;;;;;;;;;;4946040;28;19914;-68
2023/10/24 11:03:33;;;;;;;;;;;;;;;;;;4944445;28;19914;-67
2023/10/24 11:05:59;;;;;;;;;;;;;;;;;;4934276;28;19918;-67
2023/10/24 11:08:25;;;;;;;;;;;;;;;;;;4949895;28;20373;-67
2023/10/24 11:10:52;;;;;;;;;;;;;;;;;;4950074;28;20025;-67
2023/10/24 11:13:18;;;;;;;;;;;;;;;;;;4946865;28;19915;-67
2023/10/24 11:15:44;;;;;;;;;;;;;;;;;;4926461;28;20664;-67
2023/10/24 11:18:10;;;;;;;;;;;;;;;;;;4949685;28;19979;-66
2023/10/24 11:20:36;;;;;;;;;;;;;;;;;;4928977;28;19945;-68
2023/10/24 11:23:02;;;;;;;;;;;;;;;;;;4931043;28;19914;-68
2023/10/24 11:25:28;;;;;;;;;;;;;;;;;;4927318;28;20581;-67
2023/10/24 11:27:54;;;;;;;;;;;;;;;;;;4947495;28;19918;-67
2023/10/24 11:30:20;;;;;;;;;;;;;;;;;;4947345;28;19918;-67
2023/10/24 11:32:46;;;;;;;;;;;;;;;;;;4945129;28;20435;-67
2023/10/24 11:35:12;;;;;;;;;;;;;;;;;;4948750;28;19921;-68
2023/10/24 11:37:38;;;;;;;;;;;;;;;;;;4945063;28;20020;-67
2023/10/24 11:40:04;;;;;;;;;;;;;;;;;;4950355;28;19913;-68
2023/10/24 11:42:30;;;;;;;;;;;;;;;;;;4945475;28;19946;-67
2023/10/24 11:44:56;;;;;;;;;;;;;;;;;;4948868;28;19914;-66
2023/10/24 11:47:22;;;;;;;;;;;;;;;;;;4949200;28;19929;-67
2023/10/24 11:49:48;;;;;;;;;;;;;;;;;;4931854;28;20360;-68
2023/10/24 11:52:14;;;;;;;;;;;;;;;;;;4930151;28;19996;-68
2023/10/24 11:54:40;;;;;;;;;;;;;;;;;;4940889;28;20008;-67
2023/10/24 11:57:06;;;;;;;;;;;;;;;;;;4947525;28;20261;-67
2023/10/24 11:59:32;;;;;;;;;;;;;;;;;;4946259;28;19929;-68
2023/10/24 12:01:58;;;;;;;;;;;;;;;;;;4950082;28;19914;-68
2023/10/24 12:04:24;;;;;;;;;;;;;;;;;;4927445;28;19914;-68
2023/10/24 12:06:50;;;;;;;;;;;;;;;;;;4947570;28;20173;-68
2023/10/24 12:09:16;;;;;;;;;;;;;;;;;;4947628;28;20213;-68
2023/10/24 12:11:42;;;;;;;;;;;;;;;;;;4926075;28;19914;-67
2023/10/24 12:14:08;;;;;;;;;;;;;;;;;;4945412;28;20591;-67
2023/10/24 12:16:39;;;;;;;;;;;;;;;;;;4941995;28;20306;-66
2023/10/24 12:19:05;;;;;;;;;;;;;;;;;;4946511;28;19921;-66
2023/10/24 12:21:31;;;;;;;;;;;;;;;;;;4941047;28;19969;-63
2023/10/24 12:23:57;;;;;;;;;;;;;;;;;;4953846;28;19913;-63
2023/10/24 12:26:23;;;;;;;;;;;;;;;;;;4947805;28;19980;-66
2023/10/24 12:28:49;;;;;;;;;;;;;;;;;;4945104;28;20561;-66
2023/10/24 12:31:15;;;;;;;;;;;;;;;;;;4934884;28;20373;-68
2023/10/24 12:33:41;;;;;;;;;;;;;;;;;;4944951;28;20172;-67
2023/10/24 12:36:07;;;;;;;;;;;;;;;;;;4948176;28;19945;-68
2023/10/24 12:38:33;;;;;;;;;;;;;;;;;;4931386;28;19949;-71
2023/10/24 12:40:59;;;;;;;;;;;;;;;;;;4947435;28;20416;-67
2023/10/24 12:43:25;;;;;;;;;;;;;;;;;;4943799;28;20347;-68
2023/10/24 12:45:51;;;;;;;;;;;;;;;;;;4948130;28;20435;-70
2023/10/24 12:48:17;;;;;;;;;;;;;;;;;;4949162;28;20009;-68
2023/10/24 12:50:43;;;;;;;;;;;;;;;;;;4943601;28;19914;-67
2023/10/24 12:53:09;;;;;;;;;;;;;;;;;;4947407;28;19993;-67
2023/10/24 12:55:35;;;;;;;;;;;;;;;;;;4928949;28;19918;-68
2023/10/24 12:58:01;;;;;;;;;;;;;;;;;;4947240;28;20693;-68
2023/10/24 13:00:27;;;;;;;;;;;;;;;;;;4946120;28;20284;-67
2023/10/24 13:02:56;;;;;;;;;;;;;;;;;;4947951;28;19957;-68
2023/10/24 13:05:22;;;;;;;;;;;;;;;;;;4948783;28;19964;-67
2023/10/24 13:07:48;;;;;;;;;;;;;;;;;;4929013;28;19925;-67
2023/10/24 13:10:17;;;;;;;;;;;;;;;;;;4932348;28;19914;-69
2023/10/24 13:12:43;;;;;;;;;;;;;;;;;;4948643;28;19977;-63
2023/10/24 13:15:09;;;;;;;;;;;;;;;;;;4932095;28;20032;-68
2023/10/24 13:17:35;;;;;;;;;;;;;;;;;;4941257;28;19914;-64
2023/10/24 13:20:01;;;;;;;;;;;;;;;;;;4932836;28;20380;-64
2023/10/24 13:22:27;;;;;;;;;;;;;;;;;;4950007;28;20455;-70
2023/10/24 13:24:53;;;;;;;;;;;;;;;;;;4930904;28;19914;-69
2023/10/24 13:27:19;;;;;;;;;;;;;;;;;;4951950;28;19917;-68
2023/10/24 13:29:45;;;;;;;;;;;;;;;;;;4929356;28;20639;-64
2023/10/24 13:32:11;;;;;;;;;;;;;;;;;;4946986;28;19969;-70
2023/10/24 13:34:37;;;;;;;;;;;;;;;;;;4928575;28;20357;-71
2023/10/24 13:37:03;;;;;;;;;;;;;;;;;;4946178;28;20614;-64
2023/10/24 13:39:29;;;;;;;;;;;;;;;;;;4941815;28;19914;-65
2023/10/24 13:41:55;;;;;;;;;;;;;;;;;;4945495;28;19914;-67
2023/10/24 13:44:21;;;;;;;;;;;;;;;;;;4944678;28;19914;-67
2023/10/24 13:46:47;;;;;;;;;;;;;;;;;;4946042;28;20308;-65
2023/10/24 13:49:13;;;;;;;;;;;;;;;;;;4949846;28;19922;-66
2023/10/24 13:51:39;;;;;;;;;;;;;;;;;;4938599;28;20608;-65
2023/10/24 13:54:05;;;;;;;;;;;;;;;;;;4948667;28;19914;-65
2023/10/24 13:56:32;;;;;;;;;;;;;;;;;;4927716;28;20670;-65
2023/10/24 13:58:58;;;;;;;;;;;;;;;;;;4931629;28;20443;-64
2023/10/24 14:01:24;;;;;;;;;;;;;;;;;;4948159;28;19921;-65
2023/10/24 14:03:51;;;;;;;;;;;;;;;;;;4945419;28;19964;-69
2023/10/24 14:06:17;;;;;;;;;;;;;;;;;;4949967;28;20309;-67
2023/10/24 14:08:43;;;;;;;;;;;;;;;;;;4947545;28;19918;-67
2023/10/24 14:11:09;;;;;;;;;;;;;;;;;;4950582;28;19914;-67
2023/10/24 14:13:35;;;;;;;;;;;;;;;;;;4943049;28;20233;-68
2023/10/24 14:16:02;;;;;;;;;;;;;;;;;;4948557;28;19939;-67
2023/10/24 14:18:28;;;;;;;;;;;;;;;;;;4942793;28;20131;-67
2023/10/24 14:20:54;;;;;;;;;;;;;;;;;;4947540;28;19972;-67
2023/10/24 14:23:20;;;;;;;;;;;;;;;;;;4943808;28;20008;-67
2023/10/24 14:25:46;;;;;;;;;;;;;;;;;;4942011;28;19918;-67
2023/10/24 14:28:12;;;;;;;;;;;;;;;;;;4947016;28;19922;-69
2023/10/24 14:30:38;;;;;;;;;;;;;;;;;;4942359;28;20337;-69
2023/10/24 14:33:04;;;;;;;;;;;;;;;;;;4936486;28;19940;-65
2023/10/24 14:35:30;;;;;;;;;;;;;;;;;;4943285;28;19918;-67
2023/10/24 14:37:57;;;;;;;;;;;;;;;;;;4945894;28;19918;-67
2023/10/24 14:40:23;;;;;;;;;;;;;;;;;;4946368;28;19914;-67
2023/10/24 14:42:49;;;;;;;;;;;;;;;;;;4943124;28;19920;-67
2023/10/24 14:45:15;;;;;;;;;;;;;;;;;;4948367;28;19917;-67
2023/10/24 14:47:42;;;;;;;;;;;;;;;;;;4942900;28;20285;-67
2023/10/24 14:50:08;;;;;;;;;;;;;;;;;;4926492;28;20378;-67
2023/10/24 14:52:34;;;;;;;;;;;;;;;;;;4942316;28;19936;-67
2023/10/24 14:55:01;;;;;;;;;;;;;;;;;;4943879;28;19914;-67
2023/10/24 14:57:31;;;;;;;;;;;;;;;;;;4926691;28;20162;-67
2023/10/24 14:59:57;;;;;;;;;;;;;;;;;;4948321;28;19930;-68
2023/10/24 15:02:23;;;;;;;;;;;;;;;;;;4943133;28;19949;-68
2023/10/24 15:04:49;;;;;;;;;;;;;;;;;;4929940;28;20320;-68
2023/10/24 15:07:15;;;;;;;;;;;;;;;;;;4930845;28;19918;-68
2023/10/24 15:09:41;;;;;;;;;;;;;;;;;;4944992;28;20339;-68
2023/10/24 15:12:07;;;;;;;;;;;;;;;;;;4947053;28;20422;-71
2023/10/24 15:14:33;;;;;;;;;;;;;;;;;;4942956;28;20086;-72
2023/10/24 15:16:59;;;;;;;;;;;;;;;;;;4931422;28;19917;-72
2023/10/24 15:19:25;;;;;;;;;;;;;;;;;;4944966;28;19924;-72
2023/10/24 15:21:51;;;;;;;;;;;;;;;;;;4943309;28;20316;-72
2023/10/24 15:24:19;;;;;;;;;;;;;;;;;;4938469;28;20221;-72
2023/10/24 15:26:45;;;;;;;;;;;;;;;;;;4918523;28;20053;-73
2023/10/24 15:29:11;;;;;;;;;;;;;;;;;;4938840;28;19918;-73
2023/10/24 15:31:37;;;;;;;;;;;;;;;;;;4936964;28;19914;-72
2023/10/24 15:34:03;;;;;;;;;;;;;;;;;;4940723;28;19914;-72
2023/10/24 15:36:29;;;;;;;;;;;;;;;;;;4929796;28;20300;-71
2023/10/24 15:38:55;;;;;;;;;;;;;;;;;;4936769;28;20417;-72
2023/10/24 15:41:21;;;;;;;;;;;;;;;;;;4938666;28;20506;-71
2023/10/24 15:43:47;;;;;;;;;;;;;;;;;;4939745;28;19972;-71
2023/10/24 15:46:14;;;;;;;;;;;;;;;;;;4937766;28;19941;-70
2023/10/24 15:48:40;;;;;;;;;;;;;;;;;;4918111;28;19918;-71